CFG7EC LSZH-EDDF
Flight info
| Callsign | CFG7EC |
|---|---|
| Flight time | N/A |
| Altitude | 20000 |
| Route | DEGES3W DEGES Z1 SUDEN T164 KOVAN T163 SPESA SPESA5B/25L |
| Aircraft | A321/M-SDE3FGHIRWY/LB1 |
Departure
| Time | N/A |
|---|---|
| Airport | Zürich Airport (LSZH) |
Arrival
| Time | 2026-05-05 15:39 |
|---|---|
| Airport | Frankfurt Main Airport (EDDF) |
| Time | Latitude | Longitude | Altitude | Speed | Heading |
|---|---|---|---|---|---|
| 2026-05-05 15:27 | 49.94202 | 9.17426 | 9885 ft | 295 kts | 330° |
| 2026-05-05 15:27 | 49.96014 | 9.15912 | 9871 ft | 296 kts | 330° |
| 2026-05-05 15:27 | 49.97832 | 9.14393 | 9870 ft | 297 kts | 331° |
| 2026-05-05 15:27 | 49.99749 | 9.13223 | 9886 ft | 297 kts | 346° |
| 2026-05-05 15:28 | 50.01798 | 9.12796 | 9834 ft | 297 kts | 359° |
| 2026-05-05 15:28 | 50.03856 | 9.12890 | 9582 ft | 295 kts | 3° |
| 2026-05-05 15:28 | 50.05900 | 9.13091 | 9168 ft | 294 kts | 4° |
| 2026-05-05 15:28 | 50.07936 | 9.13314 | 8764 ft | 293 kts | 4° |
| 2026-05-05 15:29 | 50.09962 | 9.13548 | 8360 ft | 291 kts | 4° |
| 2026-05-05 15:29 | 50.11976 | 9.13784 | 7970 ft | 290 kts | 4° |
| 2026-05-05 15:29 | 50.13983 | 9.14022 | 7598 ft | 288 kts | 4° |
| 2026-05-05 15:29 | 50.15962 | 9.14258 | 7386 ft | 281 kts | 4° |
| 2026-05-05 15:30 | 50.17859 | 9.14489 | 7265 ft | 270 kts | 4° |
| 2026-05-05 15:30 | 50.19709 | 9.14726 | 7135 ft | 260 kts | 5° |
| 2026-05-05 15:30 | 50.21473 | 9.14616 | 6929 ft | 252 kts | 341° |
| 2026-05-05 15:30 | 50.22944 | 9.13270 | 6642 ft | 245 kts | 310° |
| 2026-05-05 15:31 | 50.23743 | 9.10997 | 6316 ft | 238 kts | 278° |
| 2026-05-05 15:31 | 50.23652 | 9.08476 | 5982 ft | 232 kts | 246° |
| 2026-05-05 15:31 | 50.22725 | 9.06479 | 5627 ft | 229 kts | 214° |
| 2026-05-05 15:31 | 50.21239 | 9.05571 | 5166 ft | 236 kts | 183° |
| 2026-05-05 15:32 | 50.19664 | 9.05655 | 5039 ft | 240 kts | 175° |
| 2026-05-05 15:32 | 50.17991 | 9.05896 | 5037 ft | 243 kts | 179° |
| 2026-05-05 15:32 | 50.16349 | 9.05391 | 5039 ft | 242 kts | 204° |
| 2026-05-05 15:32 | 50.14981 | 9.03879 | 5037 ft | 243 kts | 228° |
| 2026-05-05 15:33 | 50.14140 | 9.01673 | 5034 ft | 236 kts | 249° |
| 2026-05-05 15:33 | 50.13582 | 8.99279 | 5036 ft | 234 kts | 249° |
| 2026-05-05 15:33 | 50.13030 | 8.96898 | 5036 ft | 234 kts | 249° |
| 2026-05-05 15:33 | 50.12471 | 8.94506 | 5017 ft | 235 kts | 249° |
| 2026-05-05 15:34 | 50.11911 | 8.92115 | 4805 ft | 234 kts | 249° |
| 2026-05-05 15:34 | 50.11353 | 8.89736 | 4510 ft | 233 kts | 249° |
| 2026-05-05 15:34 | 50.10796 | 8.87368 | 4199 ft | 233 kts | 249° |
| 2026-05-05 15:34 | 50.10242 | 8.85010 | 3889 ft | 228 kts | 249° |
| 2026-05-05 15:35 | 50.09714 | 8.82768 | 3605 ft | 212 kts | 249° |
| 2026-05-05 15:35 | 50.09228 | 8.80705 | 3331 ft | 196 kts | 249° |
| 2026-05-05 15:35 | 50.08773 | 8.78776 | 3075 ft | 186 kts | 249° |
| 2026-05-05 15:35 | 50.08332 | 8.76907 | 2816 ft | 176 kts | 249° |
| 2026-05-05 15:36 | 50.07930 | 8.75205 | 2602 ft | 165 kts | 249° |
| 2026-05-05 15:36 | 50.07618 | 8.73515 | 2401 ft | 159 kts | 260° |
| 2026-05-05 15:36 | 50.07466 | 8.71845 | 2153 ft | 155 kts | 261° |
| 2026-05-05 15:36 | 50.07229 | 8.70203 | 1964 ft | 151 kts | 255° |
| 2026-05-05 15:37 | 50.06900 | 8.68651 | 1803 ft | 150 kts | 249° |
| 2026-05-05 15:37 | 50.06536 | 8.67138 | 1641 ft | 149 kts | 250° |
| 2026-05-05 15:37 | 50.06171 | 8.65605 | 1423 ft | 153 kts | 249° |
| 2026-05-05 15:37 | 50.05796 | 8.64075 | 1186 ft | 151 kts | 249° |
| 2026-05-05 15:38 | 50.05434 | 8.62547 | 987 ft | 150 kts | 250° |
| 2026-05-05 15:38 | 50.05068 | 8.61008 | 740 ft | 152 kts | 250° |
| 2026-05-05 15:38 | 50.04723 | 8.59586 | 548 ft | 149 kts | 250° |
| 2026-05-05 15:38 | 50.04396 | 8.58196 | 383 ft | 143 kts | 249° |
| 2026-05-05 15:39 | 50.04088 | 8.56911 | 362 ft | 100 kts | 249° |
| 2026-05-05 15:39 | 50.03925 | 8.56229 | 354 ft | 56 kts | 250° |
| 2026-05-05 15:39 | 50.03824 | 8.55802 | 351 ft | 37 kts | 249° |
| 2026-05-05 15:39 | 50.03784 | 8.55545 | 355 ft | 11 kts | 298° |
| 2026-05-05 15:40 | 50.03876 | 8.55493 | 353 ft | 13 kts | 346° |
| 2026-05-05 15:40 | 50.03956 | 8.55465 | 359 ft | 12 kts | 349° |
| 2026-05-05 15:40 | 50.04029 | 8.55434 | 360 ft | 10 kts | 341° |
| 2026-05-05 15:40 | 50.04088 | 8.55411 | 354 ft | 8 kts | 1° |
| 2026-05-05 15:41 | 50.04123 | 8.55460 | 355 ft | 7 kts | 60° |
| 2026-05-05 15:41 | 50.04141 | 8.55528 | 360 ft | 7 kts | 69° |
| 2026-05-05 15:41 | 50.04158 | 8.55602 | 359 ft | 7 kts | 69° |
| 2026-05-05 15:41 | 50.04173 | 8.55662 | 359 ft | 5 kts | 69° |
| 2026-05-05 15:42 | 50.04183 | 8.55704 | 353 ft | 4 kts | 69° |
| 2026-05-05 15:42 | 50.04189 | 8.55730 | 356 ft | 2 kts | 70° |
| 2026-05-05 15:42 | 50.04192 | 8.55766 | 355 ft | 8 kts | 94° |
| 2026-05-05 15:42 | 50.04163 | 8.55797 | 355 ft | 6 kts | 158° |
| 2026-05-05 15:43 | 50.04126 | 8.55818 | 354 ft | 3 kts | 159° |
| 2026-05-05 15:43 | 50.04118 | 8.55823 | 357 ft | 0 kts | 159° |